sensor_id;sensor_type;location;lat;lon;timestamp;temperature;humidity
19206;DHT22;59358;52.134;5.596;2024-03-08T00:01:38;2.90;99.90
19206;DHT22;59358;52.134;5.596;2024-03-08T00:04:04;2.90;99.90
19206;DHT22;59358;52.134;5.596;2024-03-08T00:06:32;2.90;99.90
19206;DHT22;59358;52.134;5.596;2024-03-08T00:08:59;2.90;99.90
19206;DHT22;59358;52.134;5.596;2024-03-08T00:11:26;2.80;99.90
19206;DHT22;59358;52.134;5.596;2024-03-08T00:13:53;2.80;99.90
19206;DHT22;59358;52.134;5.596;2024-03-08T00:16:19;2.80;99.90
19206;DHT22;59358;52.134;5.596;2024-03-08T00:18:50;2.80;99.90
19206;DHT22;59358;52.134;5.596;2024-03-08T00:21:16;2.70;99.90
19206;DHT22;59358;52.134;5.596;2024-03-08T00:23:44;2.80;99.90
19206;DHT22;59358;52.134;5.596;2024-03-08T00:26:11;2.70;99.90
19206;DHT22;59358;52.134;5.596;2024-03-08T00:28:38;2.70;99.90
19206;DHT22;59358;52.134;5.596;2024-03-08T00:31:05;2.70;99.90
19206;DHT22;59358;52.134;5.596;2024-03-08T00:33:32;2.60;99.90
19206;DHT22;59358;52.134;5.596;2024-03-08T00:36:00;2.60;99.90
19206;DHT22;59358;52.134;5.596;2024-03-08T00:38:27;2.60;99.90
19206;DHT22;59358;52.134;5.596;2024-03-08T00:40:54;2.60;99.90
19206;DHT22;59358;52.134;5.596;2024-03-08T00:43:22;2.60;99.90
19206;DHT22;59358;52.134;5.596;2024-03-08T00:45:49;2.60;99.90
19206;DHT22;59358;52.134;5.596;2024-03-08T00:48:15;2.50;99.90
19206;DHT22;59358;52.134;5.596;2024-03-08T00:50:42;2.50;99.90
19206;DHT22;59358;52.134;5.596;2024-03-08T00:53:12;2.50;99.90
19206;DHT22;59358;52.134;5.596;2024-03-08T00:55:39;2.50;99.90
19206;DHT22;59358;52.134;5.596;2024-03-08T00:58:05;2.50;99.90
19206;DHT22;59358;52.134;5.596;2024-03-08T01:00:34;2.50;99.90
19206;DHT22;59358;52.134;5.596;2024-03-08T01:03:01;2.40;99.90
19206;DHT22;59358;52.134;5.596;2024-03-08T01:05:29;2.40;99.90
19206;DHT22;59358;52.134;5.596;2024-03-08T01:07:55;2.40;99.90
19206;DHT22;59358;52.134;5.596;2024-03-08T01:10:23;2.40;99.90
19206;DHT22;59358;52.134;5.596;2024-03-08T01:12:50;2.40;99.90
19206;DHT22;59358;52.134;5.596;2024-03-08T01:15:17;2.30;99.90
19206;DHT22;59358;52.134;5.596;2024-03-08T01:17:45;2.40;99.90
19206;DHT22;59358;52.134;5.596;2024-03-08T01:20:12;2.30;99.90
19206;DHT22;59358;52.134;5.596;2024-03-08T01:22:38;2.30;99.90
19206;DHT22;59358;52.134;5.596;2024-03-08T01:25:06;2.30;99.90
19206;DHT22;59358;52.134;5.596;2024-03-08T01:27:35;2.30;99.90
19206;DHT22;59358;52.134;5.596;2024-03-08T01:30:02;2.30;99.90
19206;DHT22;59358;52.134;5.596;2024-03-08T01:32:30;2.20;99.90
19206;DHT22;59358;52.134;5.596;2024-03-08T01:34:56;2.20;99.90
19206;DHT22;59358;52.134;5.596;2024-03-08T01:37:23;2.20;99.90
19206;DHT22;59358;52.134;5.596;2024-03-08T01:39:50;2.20;99.90
19206;DHT22;59358;52.134;5.596;2024-03-08T01:42:17;2.10;99.90
19206;DHT22;59358;52.134;5.596;2024-03-08T01:44:45;2.10;99.90
19206;DHT22;59358;52.134;5.596;2024-03-08T01:47:12;2.10;99.90
19206;DHT22;59358;52.134;5.596;2024-03-08T01:49:39;2.00;99.90
19206;DHT22;59358;52.134;5.596;2024-03-08T01:52:06;2.00;99.90
19206;DHT22;59358;52.134;5.596;2024-03-08T01:54:34;2.00;99.90
19206;DHT22;59358;52.134;5.596;2024-03-08T01:57:02;2.00;99.90
19206;DHT22;59358;52.134;5.596;2024-03-08T01:59:29;2.00;99.90
19206;DHT22;59358;52.134;5.596;2024-03-08T02:02:01;2.00;99.90
19206;DHT22;59358;52.134;5.596;2024-03-08T02:04:28;1.90;99.90
19206;DHT22;59358;52.134;5.596;2024-03-08T02:06:56;1.90;99.90
19206;DHT22;59358;52.134;5.596;2024-03-08T02:09:24;1.90;99.90
19206;DHT22;59358;52.134;5.596;2024-03-08T02:11:51;1.90;99.90
19206;DHT22;59358;52.134;5.596;2024-03-08T02:14:20;1.80;99.90
19206;DHT22;59358;52.134;5.596;2024-03-08T02:16:47;1.80;99.90
19206;DHT22;59358;52.134;5.596;2024-03-08T02:19:15;1.80;99.90
19206;DHT22;59358;52.134;5.596;2024-03-08T02:21:43;1.80;99.90
19206;DHT22;59358;52.134;5.596;2024-03-08T02:24:12;1.70;99.90
19206;DHT22;59358;52.134;5.596;2024-03-08T02:26:39;1.80;99.90
19206;DHT22;59358;52.134;5.596;2024-03-08T02:29:08;1.70;99.90
19206;DHT22;59358;52.134;5.596;2024-03-08T02:31:34;1.70;99.90
19206;DHT22;59358;52.134;5.596;2024-03-08T02:34:01;1.70;99.90
19206;DHT22;59358;52.134;5.596;2024-03-08T02:36:28;1.70;99.90
19206;DHT22;59358;52.134;5.596;2024-03-08T02:38:56;1.60;99.90
19206;DHT22;59358;52.134;5.596;2024-03-08T02:41:23;1.60;99.90
19206;DHT22;59358;52.134;5.596;2024-03-08T02:43:50;1.60;99.90
19206;DHT22;59358;52.134;5.596;2024-03-08T02:46:17;1.60;99.90
19206;DHT22;59358;52.134;5.596;2024-03-08T02:48:43;1.50;99.90
19206;DHT22;59358;52.134;5.596;2024-03-08T02:51:10;1.50;99.90
19206;DHT22;59358;52.134;5.596;2024-03-08T02:53:37;1.50;99.90
19206;DHT22;59358;52.134;5.596;2024-03-08T02:56:05;1.50;99.90
19206;DHT22;59358;52.134;5.596;2024-03-08T02:58:34;1.60;99.90
19206;DHT22;59358;52.134;5.596;2024-03-08T03:01:01;1.50;99.90
19206;DHT22;59358;52.134;5.596;2024-03-08T03:03:27;1.50;99.90
19206;DHT22;59358;52.134;5.596;2024-03-08T03:05:54;1.50;99.90
19206;DHT22;59358;52.134;5.596;2024-03-08T03:08:21;1.50;99.90
19206;DHT22;59358;52.134;5.596;2024-03-08T03:10:49;1.50;99.90
19206;DHT22;59358;52.134;5.596;2024-03-08T03:13:17;1.50;99.90
19206;DHT22;59358;52.134;5.596;2024-03-08T03:15:46;1.50;99.90
19206;DHT22;59358;52.134;5.596;2024-03-08T03:18:13;1.50;99.90
19206;DHT22;59358;52.134;5.596;2024-03-08T03:20:41;1.50;99.90
19206;DHT22;59358;52.134;5.596;2024-03-08T03:23:08;1.50;99.90
19206;DHT22;59358;52.134;5.596;2024-03-08T03:25:39;1.50;99.90
19206;DHT22;59358;52.134;5.596;2024-03-08T03:28:07;1.60;99.90
19206;DHT22;59358;52.134;5.596;2024-03-08T03:30:37;1.50;99.90
19206;DHT22;59358;52.134;5.596;2024-03-08T03:33:04;1.50;99.90
19206;DHT22;59358;52.134;5.596;2024-03-08T03:35:32;1.50;99.90
19206;DHT22;59358;52.134;5.596;2024-03-08T03:37:59;1.50;99.90
19206;DHT22;59358;52.134;5.596;2024-03-08T03:40:32;1.50;99.90
19206;DHT22;59358;52.134;5.596;2024-03-08T03:42:59;1.50;99.90
19206;DHT22;59358;52.134;5.596;2024-03-08T03:45:26;1.50;99.90
19206;DHT22;59358;52.134;5.596;2024-03-08T03:47:54;1.50;99.90
19206;DHT22;59358;52.134;5.596;2024-03-08T03:50:21;1.50;99.90
19206;DHT22;59358;52.134;5.596;2024-03-08T03:52:49;1.50;99.90
19206;DHT22;59358;52.134;5.596;2024-03-08T03:55:16;1.50;99.90
19206;DHT22;59358;52.134;5.596;2024-03-08T03:57:43;1.50;99.90
19206;DHT22;59358;52.134;5.596;2024-03-08T04:00:11;1.50;99.90
19206;DHT22;59358;52.134;5.596;2024-03-08T04:02:39;1.50;99.90
19206;DHT22;59358;52.134;5.596;2024-03-08T04:05:09;1.50;99.90
19206;DHT22;59358;52.134;5.596;2024-03-08T04:07:37;1.50;99.90
19206;DHT22;59358;52.134;5.596;2024-03-08T04:10:05;1.50;99.90
19206;DHT22;59358;52.134;5.596;2024-03-08T04:12:32;1.50;99.90
19206;DHT22;59358;52.134;5.596;2024-03-08T04:14:59;1.50;99.90
19206;DHT22;59358;52.134;5.596;2024-03-08T04:17:26;1.50;99.90
19206;DHT22;59358;52.134;5.596;2024-03-08T04:19:53;1.50;99.90
19206;DHT22;59358;52.134;5.596;2024-03-08T04:22:21;1.40;99.90
19206;DHT22;59358;52.134;5.596;2024-03-08T04:24:48;1.40;99.90
19206;DHT22;59358;52.134;5.596;2024-03-08T04:27:15;1.40;99.90
19206;DHT22;59358;52.134;5.596;2024-03-08T04:29:41;1.40;99.90
19206;DHT22;59358;52.134;5.596;2024-03-08T04:32:10;1.30;99.90
19206;DHT22;59358;52.134;5.596;2024-03-08T04:34:39;1.30;99.90
19206;DHT22;59358;52.134;5.596;2024-03-08T04:37:05;1.30;99.90
19206;DHT22;59358;52.134;5.596;2024-03-08T04:39:33;1.40;99.90
19206;DHT22;59358;52.134;5.596;2024-03-08T04:42:02;1.30;99.90
19206;DHT22;59358;52.134;5.596;2024-03-08T04:44:30;1.30;99.90
19206;DHT22;59358;52.134;5.596;2024-03-08T04:46:57;1.20;99.90
19206;DHT22;59358;52.134;5.596;2024-03-08T04:49:24;1.30;99.90
19206;DHT22;59358;52.134;5.596;2024-03-08T04:51:51;1.20;99.90
19206;DHT22;59358;52.134;5.596;2024-03-08T04:54:18;1.20;99.90
19206;DHT22;59358;52.134;5.596;2024-03-08T04:56:46;1.20;99.90
19206;DHT22;59358;52.134;5.596;2024-03-08T04:59:13;1.10;99.90
19206;DHT22;59358;52.134;5.596;2024-03-08T05:01:39;1.10;99.90
19206;DHT22;59358;52.134;5.596;2024-03-08T05:04:06;1.10;99.90
19206;DHT22;59358;52.134;5.596;2024-03-08T05:06:33;1.10;99.90
19206;DHT22;59358;52.134;5.596;2024-03-08T05:09:00;1.10;99.90
19206;DHT22;59358;52.134;5.596;2024-03-08T05:11:31;1.10;99.90
19206;DHT22;59358;52.134;5.596;2024-03-08T05:14:00;1.10;99.90
19206;DHT22;59358;52.134;5.596;2024-03-08T05:16:26;1.10;99.90
19206;DHT22;59358;52.134;5.596;2024-03-08T05:18:53;1.00;99.90
19206;DHT22;59358;52.134;5.596;2024-03-08T05:21:20;1.10;99.90
19206;DHT22;59358;52.134;5.596;2024-03-08T05:23:47;1.00;99.90
19206;DHT22;59358;52.134;5.596;2024-03-08T05:26:15;1.00;99.90
19206;DHT22;59358;52.134;5.596;2024-03-08T05:28:42;1.00;99.90
19206;DHT22;59358;52.134;5.596;2024-03-08T05:31:10;1.00;99.90
19206;DHT22;59358;52.134;5.596;2024-03-08T05:33:44;1.00;99.90
19206;DHT22;59358;52.134;5.596;2024-03-08T05:36:10;1.00;99.90
19206;DHT22;59358;52.134;5.596;2024-03-08T05:38:38;1.00;99.90
19206;DHT22;59358;52.134;5.596;2024-03-08T05:41:05;1.00;99.90
19206;DHT22;59358;52.134;5.596;2024-03-08T05:43:32;1.00;99.90
19206;DHT22;59358;52.134;5.596;2024-03-08T05:46:01;1.00;99.90
19206;DHT22;59358;52.134;5.596;2024-03-08T05:48:31;1.00;99.90
19206;DHT22;59358;52.134;5.596;2024-03-08T05:50:59;1.00;99.90
19206;DHT22;59358;52.134;5.596;2024-03-08T05:53:27;1.00;99.90
19206;DHT22;59358;52.134;5.596;2024-03-08T05:55:57;1.00;99.90
19206;DHT22;59358;52.134;5.596;2024-03-08T05:58:24;1.00;99.90
19206;DHT22;59358;52.134;5.596;2024-03-08T06:00:50;0.90;99.90
19206;DHT22;59358;52.134;5.596;2024-03-08T06:03:17;1.00;99.90
19206;DHT22;59358;52.134;5.596;2024-03-08T06:05:48;1.00;99.90
19206;DHT22;59358;52.134;5.596;2024-03-08T06:08:15;0.90;99.90
19206;DHT22;59358;52.134;5.596;2024-03-08T06:10:42;0.90;99.90
19206;DHT22;59358;52.134;5.596;2024-03-08T06:13:09;0.90;99.90
19206;DHT22;59358;52.134;5.596;2024-03-08T06:15:37;1.00;99.90
19206;DHT22;59358;52.134;5.596;2024-03-08T06:18:04;0.90;99.90
19206;DHT22;59358;52.134;5.596;2024-03-08T06:20:31;0.90;99.90
19206;DHT22;59358;52.134;5.596;2024-03-08T06:22:59;0.90;99.90
19206;DHT22;59358;52.134;5.596;2024-03-08T06:25:27;1.00;99.90
19206;DHT22;59358;52.134;5.596;2024-03-08T06:27:53;1.00;99.90
19206;DHT22;59358;52.134;5.596;2024-03-08T06:30:20;1.00;99.90
19206;DHT22;59358;52.134;5.596;2024-03-08T06:32:47;1.00;99.90
19206;DHT22;59358;52.134;5.596;2024-03-08T06:35:14;1.00;99.90
19206;DHT22;59358;52.134;5.596;2024-03-08T06:37:41;1.10;99.90
19206;DHT22;59358;52.134;5.596;2024-03-08T06:40:12;1.10;99.90
19206;DHT22;59358;52.134;5.596;2024-03-08T06:42:40;1.10;99.90
19206;DHT22;59358;52.134;5.596;2024-03-08T06:45:07;1.10;99.90
19206;DHT22;59358;52.134;5.596;2024-03-08T06:47:35;1.20;99.90
19206;DHT22;59358;52.134;5.596;2024-03-08T06:50:03;1.20;99.90
19206;DHT22;59358;52.134;5.596;2024-03-08T06:52:31;1.30;99.90
19206;DHT22;59358;52.134;5.596;2024-03-08T06:54:58;1.30;99.90
19206;DHT22;59358;52.134;5.596;2024-03-08T06:57:28;1.40;99.90
19206;DHT22;59358;52.134;5.596;2024-03-08T06:59:55;1.40;99.90
19206;DHT22;59358;52.134;5.596;2024-03-08T07:02:22;1.50;99.90
19206;DHT22;59358;52.134;5.596;2024-03-08T07:04:50;1.50;99.90
19206;DHT22;59358;52.134;5.596;2024-03-08T07:07:16;1.60;99.90
19206;DHT22;59358;52.134;5.596;2024-03-08T07:09:46;1.60;99.90
19206;DHT22;59358;52.134;5.596;2024-03-08T07:12:15;1.70;99.90
19206;DHT22;59358;52.134;5.596;2024-03-08T07:14:43;1.80;99.90
19206;DHT22;59358;52.134;5.596;2024-03-08T07:17:11;1.90;99.90
19206;DHT22;59358;52.134;5.596;2024-03-08T07:19:38;1.90;99.90
19206;DHT22;59358;52.134;5.596;2024-03-08T07:22:04;2.00;99.90
19206;DHT22;59358;52.134;5.596;2024-03-08T07:24:34;2.10;99.90
19206;DHT22;59358;52.134;5.596;2024-03-08T07:27:16;2.20;99.90
19206;DHT22;59358;52.134;5.596;2024-03-08T07:29:44;2.10;99.90
19206;DHT22;59358;52.134;5.596;2024-03-08T07:32:11;2.20;99.90
19206;DHT22;59358;52.134;5.596;2024-03-08T07:34:46;2.30;99.90
19206;DHT22;59358;52.134;5.596;2024-03-08T07:37:12;2.40;99.90
19206;DHT22;59358;52.134;5.596;2024-03-08T07:39:39;2.40;99.90
19206;DHT22;59358;52.134;5.596;2024-03-08T07:42:06;2.50;99.90
19206;DHT22;59358;52.134;5.596;2024-03-08T07:44:33;2.60;99.90
19206;DHT22;59358;52.134;5.596;2024-03-08T07:47:01;2.70;99.90
19206;DHT22;59358;52.134;5.596;2024-03-08T07:49:29;2.70;99.90
19206;DHT22;59358;52.134;5.596;2024-03-08T07:51:56;2.80;99.90
19206;DHT22;59358;52.134;5.596;2024-03-08T07:54:24;2.80;99.90
19206;DHT22;59358;52.134;5.596;2024-03-08T07:56:51;3.00;99.90
19206;DHT22;59358;52.134;5.596;2024-03-08T07:59:18;3.10;99.90
19206;DHT22;59358;52.134;5.596;2024-03-08T08:01:46;3.10;99.90
19206;DHT22;59358;52.134;5.596;2024-03-08T08:04:14;3.10;99.90
19206;DHT22;59358;52.134;5.596;2024-03-08T08:06:43;3.20;99.90
19206;DHT22;59358;52.134;5.596;2024-03-08T08:09:26;3.30;99.90
19206;DHT22;59358;52.134;5.596;2024-03-08T08:12:00;3.40;99.90
19206;DHT22;59358;52.134;5.596;2024-03-08T08:14:27;3.50;99.90
19206;DHT22;59358;52.134;5.596;2024-03-08T08:16:54;3.60;99.90
19206;DHT22;59358;52.134;5.596;2024-03-08T08:19:24;3.70;99.90
19206;DHT22;59358;52.134;5.596;2024-03-08T08:21:54;3.70;99.90
19206;DHT22;59358;52.134;5.596;2024-03-08T08:24:21;3.80;99.90
19206;DHT22;59358;52.134;5.596;2024-03-08T08:26:48;4.00;99.90
19206;DHT22;59358;52.134;5.596;2024-03-08T08:29:15;4.00;99.90
19206;DHT22;59358;52.134;5.596;2024-03-08T08:31:42;4.10;99.90
19206;DHT22;59358;52.134;5.596;2024-03-08T08:34:09;4.10;99.90
19206;DHT22;59358;52.134;5.596;2024-03-08T08:36:46;4.20;99.90
19206;DHT22;59358;52.134;5.596;2024-03-08T08:39:13;4.20;99.90
19206;DHT22;59358;52.134;5.596;2024-03-08T08:41:42;4.40;99.90
19206;DHT22;59358;52.134;5.596;2024-03-08T08:44:09;4.50;99.90
19206;DHT22;59358;52.134;5.596;2024-03-08T08:46:37;4.60;99.90
19206;DHT22;59358;52.134;5.596;2024-03-08T08:49:04;4.80;99.90
19206;DHT22;59358;52.134;5.596;2024-03-08T08:51:31;4.80;99.90
19206;DHT22;59358;52.134;5.596;2024-03-08T08:54:00;4.90;99.90
19206;DHT22;59358;52.134;5.596;2024-03-08T08:56:27;4.90;99.90
19206;DHT22;59358;52.134;5.596;2024-03-08T08:58:54;5.00;99.90
19206;DHT22;59358;52.134;5.596;2024-03-08T09:01:21;5.00;99.90
19206;DHT22;59358;52.134;5.596;2024-03-08T09:03:48;5.20;99.90
19206;DHT22;59358;52.134;5.596;2024-03-08T09:06:15;5.20;99.90
19206;DHT22;59358;52.134;5.596;2024-03-08T09:08:43;5.30;99.90
19206;DHT22;59358;52.134;5.596;2024-03-08T09:11:12;5.50;99.90
19206;DHT22;59358;52.134;5.596;2024-03-08T09:13:40;5.60;99.90
19206;DHT22;59358;52.134;5.596;2024-03-08T09:16:07;5.60;99.90
19206;DHT22;59358;52.134;5.596;2024-03-08T09:18:36;5.70;99.90
19206;DHT22;59358;52.134;5.596;2024-03-08T09:21:03;5.80;99.90
19206;DHT22;59358;52.134;5.596;2024-03-08T09:23:30;5.70;99.90
19206;DHT22;59358;52.134;5.596;2024-03-08T09:25:57;5.80;99.90
19206;DHT22;59358;52.134;5.596;2024-03-08T09:28:25;5.90;99.90
19206;DHT22;59358;52.134;5.596;2024-03-08T09:30:52;6.00;99.90
19206;DHT22;59358;52.134;5.596;2024-03-08T09:33:20;6.00;99.90
19206;DHT22;59358;52.134;5.596;2024-03-08T09:35:47;6.10;99.90
19206;DHT22;59358;52.134;5.596;2024-03-08T09:38:16;6.40;99.90
19206;DHT22;59358;52.134;5.596;2024-03-08T09:40:43;6.60;99.90
19206;DHT22;59358;52.134;5.596;2024-03-08T09:43:19;6.70;99.90
19206;DHT22;59358;52.134;5.596;2024-03-08T09:45:49;6.90;99.90
19206;DHT22;59358;52.134;5.596;2024-03-08T09:48:17;7.00;99.90
19206;DHT22;59358;52.134;5.596;2024-03-08T09:50:46;7.10;99.90
19206;DHT22;59358;52.134;5.596;2024-03-08T09:53:13;7.20;99.90
19206;DHT22;59358;52.134;5.596;2024-03-08T09:55:41;7.30;99.90
19206;DHT22;59358;52.134;5.596;2024-03-08T09:58:12;7.40;99.90
19206;DHT22;59358;52.134;5.596;2024-03-08T10:03:58;7.40;99.90
19206;DHT22;59358;52.134;5.596;2024-03-08T10:06:25;7.60;99.90
19206;DHT22;59358;52.134;5.596;2024-03-08T10:08:52;7.60;99.90
19206;DHT22;59358;52.134;5.596;2024-03-08T10:11:19;7.60;99.90
19206;DHT22;59358;52.134;5.596;2024-03-08T10:14:09;7.60;99.90
19206;DHT22;59358;52.134;5.596;2024-03-08T10:17:05;7.90;99.90
19206;DHT22;59358;52.134;5.596;2024-03-08T10:19:51;8.10;99.90
19206;DHT22;59358;52.134;5.596;2024-03-08T10:22:41;8.10;99.90
19206;DHT22;59358;52.134;5.596;2024-03-08T10:25:25;8.10;99.90
19206;DHT22;59358;52.134;5.596;2024-03-08T10:28:03;8.00;99.90
19206;DHT22;59358;52.134;5.596;2024-03-08T10:31:52;8.30;99.90
19206;DHT22;59358;52.134;5.596;2024-03-08T10:33:45;8.40;99.90
19206;DHT22;59358;52.134;5.596;2024-03-08T10:36:14;8.60;99.90
19206;DHT22;59358;52.134;5.596;2024-03-08T10:38:42;8.60;99.90
19206;DHT22;59358;52.134;5.596;2024-03-08T10:41:14;8.50;99.90
19206;DHT22;59358;52.134;5.596;2024-03-08T10:44:18;8.60;99.90
19206;DHT22;59358;52.134;5.596;2024-03-08T10:47:00;8.80;99.90
19206;DHT22;59358;52.134;5.596;2024-03-08T10:49:34;8.70;99.90
19206;DHT22;59358;52.134;5.596;2024-03-08T10:52:05;8.90;99.90
19206;DHT22;59358;52.134;5.596;2024-03-08T10:54:34;9.00;99.90
19206;DHT22;59358;52.134;5.596;2024-03-08T10:57:05;9.00;99.90
19206;DHT22;59358;52.134;5.596;2024-03-08T10:59:34;9.00;99.90
19206;DHT22;59358;52.134;5.596;2024-03-08T11:02:01;9.00;99.90
19206;DHT22;59358;52.134;5.596;2024-03-08T11:04:32;9.10;99.90
19206;DHT22;59358;52.134;5.596;2024-03-08T11:07:00;9.20;99.90
19206;DHT22;59358;52.134;5.596;2024-03-08T11:09:32;9.40;99.90
19206;DHT22;59358;52.134;5.596;2024-03-08T11:12:18;9.40;99.90
19206;DHT22;59358;52.134;5.596;2024-03-08T11:14:46;9.40;99.90
19206;DHT22;59358;52.134;5.596;2024-03-08T11:17:14;9.60;99.90
19206;DHT22;59358;52.134;5.596;2024-03-08T11:19:48;9.80;99.90
19206;DHT22;59358;52.134;5.596;2024-03-08T11:22:22;9.80;99.90
19206;DHT22;59358;52.134;5.596;2024-03-08T11:24:50;9.90;99.90
19206;DHT22;59358;52.134;5.596;2024-03-08T11:27:17;10.00;99.90
19206;DHT22;59358;52.134;5.596;2024-03-08T11:29:59;10.20;99.90
19206;DHT22;59358;52.134;5.596;2024-03-08T11:32:35;10.00;99.90
19206;DHT22;59358;52.134;5.596;2024-03-08T11:35:07;10.20;99.90
19206;DHT22;59358;52.134;5.596;2024-03-08T11:37:44;10.30;99.90
19206;DHT22;59358;52.134;5.596;2024-03-08T11:40:12;10.30;99.90
19206;DHT22;59358;52.134;5.596;2024-03-08T11:42:45;10.50;99.90
19206;DHT22;59358;52.134;5.596;2024-03-08T11:45:14;10.40;99.90
19206;DHT22;59358;52.134;5.596;2024-03-08T11:47:42;10.40;99.90
19206;DHT22;59358;52.134;5.596;2024-03-08T11:50:13;10.30;99.90
19206;DHT22;59358;52.134;5.596;2024-03-08T11:52:40;10.20;99.90
19206;DHT22;59358;52.134;5.596;2024-03-08T11:55:08;10.20;99.90
19206;DHT22;59358;52.134;5.596;2024-03-08T11:57:36;10.10;99.90
19206;DHT22;59358;52.134;5.596;2024-03-08T12:00:04;10.30;99.90
19206;DHT22;59358;52.134;5.596;2024-03-08T12:02:32;10.20;99.90
19206;DHT22;59358;52.134;5.596;2024-03-08T12:05:01;10.40;99.90
19206;DHT22;59358;52.134;5.596;2024-03-08T12:07:30;10.50;99.90
19206;DHT22;59358;52.134;5.596;2024-03-08T12:10:17;10.30;99.90
19206;DHT22;59358;52.134;5.596;2024-03-08T12:12:45;10.20;99.90
19206;DHT22;59358;52.134;5.596;2024-03-08T12:15:13;10.20;99.90
19206;DHT22;59358;52.134;5.596;2024-03-08T12:17:41;10.20;99.90
19206;DHT22;59358;52.134;5.596;2024-03-08T12:20:13;10.60;99.90
19206;DHT22;59358;52.134;5.596;2024-03-08T12:22:43;10.70;99.90
19206;DHT22;59358;52.134;5.596;2024-03-08T12:25:11;10.80;99.90
19206;DHT22;59358;52.134;5.596;2024-03-08T12:27:39;11.00;99.90
19206;DHT22;59358;52.134;5.596;2024-03-08T12:30:20;10.90;99.90
19206;DHT22;59358;52.134;5.596;2024-03-08T12:32:54;11.10;99.90
19206;DHT22;59358;52.134;5.596;2024-03-08T12:35:22;11.10;99.90
19206;DHT22;59358;52.134;5.596;2024-03-08T12:37:53;11.20;99.90
19206;DHT22;59358;52.134;5.596;2024-03-08T12:40:26;11.20;99.90
19206;DHT22;59358;52.134;5.596;2024-03-08T12:42:54;11.20;99.90
19206;DHT22;59358;52.134;5.596;2024-03-08T12:45:21;11.10;99.90
19206;DHT22;59358;52.134;5.596;2024-03-08T12:47:49;11.10;99.90
19206;DHT22;59358;52.134;5.596;2024-03-08T12:50:16;11.10;99.90
19206;DHT22;59358;52.134;5.596;2024-03-08T12:52:43;11.20;99.90
19206;DHT22;59358;52.134;5.596;2024-03-08T12:55:12;11.20;99.90
19206;DHT22;59358;52.134;5.596;2024-03-08T12:57:39;11.20;99.90
19206;DHT22;59358;52.134;5.596;2024-03-08T13:00:07;11.10;99.90
19206;DHT22;59358;52.134;5.596;2024-03-08T13:02:39;10.80;99.90
19206;DHT22;59358;52.134;5.596;2024-03-08T13:05:06;10.70;99.90
19206;DHT22;59358;52.134;5.596;2024-03-08T13:07:35;10.80;99.90
19206;DHT22;59358;52.134;5.596;2024-03-08T13:10:04;10.90;99.90
19206;DHT22;59358;52.134;5.596;2024-03-08T13:12:32;11.00;99.90
19206;DHT22;59358;52.134;5.596;2024-03-08T13:15:03;10.90;99.90
19206;DHT22;59358;52.134;5.596;2024-03-08T13:17:31;10.70;99.90
19206;DHT22;59358;52.134;5.596;2024-03-08T13:19:57;10.90;99.90
19206;DHT22;59358;52.134;5.596;2024-03-08T13:22:24;11.20;99.90
19206;DHT22;59358;52.134;5.596;2024-03-08T13:32:11;11.20;99.90
19206;DHT22;59358;52.134;5.596;2024-03-08T13:37:53;11.00;99.90
19206;DHT22;59358;52.134;5.596;2024-03-08T14:14:53;10.90;99.90
19206;DHT22;59358;52.134;5.596;2024-03-08T14:24:38;10.90;99.90
19206;DHT22;59358;52.134;5.596;2024-03-08T14:27:11;11.10;99.90
19206;DHT22;59358;52.134;5.596;2024-03-08T14:29:40;11.00;99.90
19206;DHT22;59358;52.134;5.596;2024-03-08T14:32:09;11.10;99.90
19206;DHT22;59358;52.134;5.596;2024-03-08T14:34:39;11.10;99.90
19206;DHT22;59358;52.134;5.596;2024-03-08T14:37:06;11.30;99.90
19206;DHT22;59358;52.134;5.596;2024-03-08T14:39:38;11.40;99.90
19206;DHT22;59358;52.134;5.596;2024-03-08T14:42:05;11.20;99.90
19206;DHT22;59358;52.134;5.596;2024-03-08T14:44:34;11.20;99.90
19206;DHT22;59358;52.134;5.596;2024-03-08T14:47:01;11.20;99.90
19206;DHT22;59358;52.134;5.596;2024-03-08T14:49:31;11.30;99.90
19206;DHT22;59358;52.134;5.596;2024-03-08T14:52:02;11.40;99.90
19206;DHT22;59358;52.134;5.596;2024-03-08T14:54:29;11.50;99.90
19206;DHT22;59358;52.134;5.596;2024-03-08T14:56:58;11.40;99.90
19206;DHT22;59358;52.134;5.596;2024-03-08T14:59:24;11.20;99.90
19206;DHT22;59358;52.134;5.596;2024-03-08T15:01:55;11.20;99.90
19206;DHT22;59358;52.134;5.596;2024-03-08T15:04:21;11.10;99.90
19206;DHT22;59358;52.134;5.596;2024-03-08T15:06:48;11.00;99.90
19206;DHT22;59358;52.134;5.596;2024-03-08T15:09:15;11.10;99.90
19206;DHT22;59358;52.134;5.596;2024-03-08T15:11:45;11.10;99.90
19206;DHT22;59358;52.134;5.596;2024-03-08T15:14:16;11.10;99.90
19206;DHT22;59358;52.134;5.596;2024-03-08T15:16:44;11.10;99.90
19206;DHT22;59358;52.134;5.596;2024-03-08T15:19:13;11.10;99.90
19206;DHT22;59358;52.134;5.596;2024-03-08T15:21:41;11.10;99.90
19206;DHT22;59358;52.134;5.596;2024-03-08T15:24:08;11.10;99.90
19206;DHT22;59358;52.134;5.596;2024-03-08T15:26:41;11.10;99.90
19206;DHT22;59358;52.134;5.596;2024-03-08T15:29:08;11.30;99.90
19206;DHT22;59358;52.134;5.596;2024-03-08T15:31:39;11.20;99.90
19206;DHT22;59358;52.134;5.596;2024-03-08T15:34:08;11.30;99.90
19206;DHT22;59358;52.134;5.596;2024-03-08T15:36:36;11.40;99.90
19206;DHT22;59358;52.134;5.596;2024-03-08T15:39:08;11.30;99.90
19206;DHT22;59358;52.134;5.596;2024-03-08T15:41:36;11.40;99.90
19206;DHT22;59358;52.134;5.596;2024-03-08T15:44:04;11.50;99.90
19206;DHT22;59358;52.134;5.596;2024-03-08T15:46:31;11.70;99.90
19206;DHT22;59358;52.134;5.596;2024-03-08T15:48:59;11.80;99.90
19206;DHT22;59358;52.134;5.596;2024-03-08T15:51:27;11.80;99.90
19206;DHT22;59358;52.134;5.596;2024-03-08T15:53:56;11.80;99.90
19206;DHT22;59358;52.134;5.596;2024-03-08T15:56:23;12.00;99.90
19206;DHT22;59358;52.134;5.596;2024-03-08T15:58:51;11.90;99.90
19206;DHT22;59358;52.134;5.596;2024-03-08T16:01:18;12.10;99.90
19206;DHT22;59358;52.134;5.596;2024-03-08T16:03:45;12.30;99.90
19206;DHT22;59358;52.134;5.596;2024-03-08T16:06:16;12.50;99.90
19206;DHT22;59358;52.134;5.596;2024-03-08T16:08:46;12.50;99.90
19206;DHT22;59358;52.134;5.596;2024-03-08T16:11:13;12.20;99.90
19206;DHT22;59358;52.134;5.596;2024-03-08T16:13:40;12.20;99.90
19206;DHT22;59358;52.134;5.596;2024-03-08T16:16:08;12.30;99.90
19206;DHT22;59358;52.134;5.596;2024-03-08T16:18:34;12.20;99.90
19206;DHT22;59358;52.134;5.596;2024-03-08T16:21:03;12.20;99.90
19206;DHT22;59358;52.134;5.596;2024-03-08T16:23:31;12.20;99.90
19206;DHT22;59358;52.134;5.596;2024-03-08T16:25:58;12.60;99.90
19206;DHT22;59358;52.134;5.596;2024-03-08T16:28:25;12.60;99.90
19206;DHT22;59358;52.134;5.596;2024-03-08T16:30:54;12.60;99.90
19206;DHT22;59358;52.134;5.596;2024-03-08T16:33:21;12.60;99.90
19206;DHT22;59358;52.134;5.596;2024-03-08T16:35:48;12.80;99.90
19206;DHT22;59358;52.134;5.596;2024-03-08T16:38:16;12.80;99.90
19206;DHT22;59358;52.134;5.596;2024-03-08T16:40:46;12.90;99.90
19206;DHT22;59358;52.134;5.596;2024-03-08T16:43:16;12.70;99.90
19206;DHT22;59358;52.134;5.596;2024-03-08T16:45:46;11.80;99.90
19206;DHT22;59358;52.134;5.596;2024-03-08T16:48:15;11.00;99.90